This is the latest recevied weather packets stored in our database for station/object F1ZFG-13. If no packets are shown the sender has not sent any weather packets the latest 10 day(s).
| Time | Temp. | Humidity | Pressure | Rain* | Wind** | Luminosity | Snow |
|---|---|---|---|---|---|---|---|
| 1777924204 | 11.67° C | 93% | 1012.4 hPa | 0 mm | - | - | - |
| 1777921229 | 12.78° C | 91% | 1011.8 hPa | 0.51 mm | - | - | - |
| 1777917828 | 14.44° C | 79% | 1011.8 hPa | 0.51 mm | - | - | - |
| 1777914898 | 15° C | 71% | 1011.6 hPa | 0 mm | - | - | - |
| 1777911828 | 15.56° C | 67% | 1011.6 hPa | 0 mm | - | - | - |
| 1777908513 | 15.56° C | 65% | 1012.1 hPa | 0 mm | - | - | - |
| 1777905538 | 15.56° C | 67% | 1013 hPa | 0 mm | - | - | - |
| 1777902485 | 13.89° C | 74% | 1014.2 hPa | 0 mm | - | - | - |
| 1777899610 | 12.78° C | 76% | 1013.6 hPa | 0 mm | - | - | - |
| 1777896653 | 13.89° C | 71% | 1014.1 hPa | 0 mm | - | - | - |
| 1777893196 | 12.78° C | 77% | 1014.6 hPa | 0 mm | - | - | - |
| 1777889623 | 12.78° C | 81% | 1014.8 hPa | 0 mm | - | - | - |
| 1777886445 | -17.78° C | 100% | 0 hPa | 0 mm | - | - | - |
| 1777886164 | -17.78° C | 100% | 0 hPa | 0 mm | - | - | - |
| 1777882664 | 10.56° C | 92% | 1015 hPa | 0 mm | - | - | - |
| 1777879349 | 10° C | 90% | 1014.7 hPa | 0 mm | - | - | - |
| 1777876458 | 10° C | 90% | 1014.4 hPa | 0.25 mm | - | - | - |
| 1777873371 | 10.56° C | 87% | 1014.4 hPa | 0.25 mm | - | - | - |
| 1777870128 | 11.11° C | 86% | 1014.7 hPa | 0.76 mm | - | - | - |
| 1777866863 | 11.67° C | 81% | 1014.6 hPa | 0.25 mm | - | - | - |
| 1777863779 | 11.67° C | 81% | 1014.6 hPa | 0.25 mm | - | - | - |
| 1777860349 | 12.22° C | 73% | 1014.4 hPa | 0 mm | - | - | - |
| 1777857077 | 12.22° C | 70% | 1014.4 hPa | 0 mm | - | - | - |
| 1777854162 | 11.67° C | 68% | 1014.9 hPa | 0 mm | - | - | - |
| 1777850713 | 12.22° C | 66% | 1014.7 hPa | 0 mm | - | - | - |
* Rain latest hour (hover to see other rain measurements)
** Current wind speed in m/s (hover to see current wind gust speed)